GOOYGGOV

Guest
Details From GOOY - Dakar Leopold Sedar Senghor Intl
To GGOV - BISSAU OSWALDO VIEIRA INTL
Flight Number -
Tags generated
Created
Modified
Stats Distance 202 nm / 375 km
Max Altitude 21,600 ft / 6,584 m
Waypoints 3
Social Downloads 0
Likes 0
Share VATSIM

Download

Looking for another format? Having issues loading an existing format? Contact us
Advertisement - Login to hide

Notes

Basic altitude profile: - Ascent Rate: 2500ft/min - Ascent Speed: 250kts - Cruise Altitude: 35000ft - Cruise Speed: 420kts - Descent Rate: 1500ft/min - Descent Speed: 250kts Options: - Use NATs: yes - Use PACOTS: yes - Use low airways: yes - Use high airways: yes

Route

GOOY ND GGOV

ID Type Via Altitude Latitude Longitude Leg Dist Tot Dist Heading (true) Name
O GOOY APT - 0 ft / 0 m 14.73971˚ -17.49023˚ - 0 nm - Dakar Leopold Sedar Senghor Intl
ND NDB - 21,600 ft / 6,584 m 13.34538˚ -16.65744˚ 96 nm 96 nm 150° / 150° BANJUL NDB
O GGOV APT - 0 ft / 0 m 11.89017˚ -15.64883˚ 105 nm 202 nm 146° / 146° BISSAU OSWALDO VIEIRA INTL

Altitude Profile

Advertisement - Login to hide

Weather


0- 5 10 15 20 25 30 35+ Temperature / ° C

Clouds and Precipitation
Forecast for 2018-05-20 18:00 UTC. Updated an hour ago

Ground ~20,000 ft ~40,000 ft Winds

GOOY

Details ICAO GOOY (DKR)
Name Dakar Leopold Sedar Senghor Intl
Region Senegal
Timezone Africa/Dakar (UTC+0.0)
Stats Elevation 85 ft / 26 m (AMSL)
Location 14.739711° -17.490226°
Runways 2
Magnetic Variation 7.299° W

METAR

GOOY 201600Z 36012KT 9999 FEW010 23/19 Q1012

Decode

TAF

TAF GOOY 201130Z 2012/2118 34010KT 9999 SCT010= TAF GBYD 201130Z 2012/2118 28010KT 9999 CAVOK

Decode

Departure Runways

ID Width Length Bearing (true) Bearing (mag) Surface Threshold Offset Overrun Length
03 98 ft / 30 m 4,921 ft / 1,500 m 22.31° 29.61° Asphalt 0 ft / 0 m 98 ft / 30 m
18 148 ft / 45 m 11,511 ft / 3,509 m 172.57° 179.87° Asphalt 525 ft / 160 m 197 ft / 60 m
21 98 ft / 30 m 4,921 ft / 1,500 m 202.31° 209.61° Asphalt 0 ft / 0 m 1,590 ft / 485 m
36 148 ft / 45 m 11,511 ft / 3,509 m 352.57° 359.87° Asphalt 0 ft / 0 m 197 ft / 60 m

GGOV

Details ICAO GGOV (OXB)
Name BISSAU OSWALDO VIEIRA INTL
Region Guinea Bissau
Timezone Africa/Bissau (UTC+0.0)
Stats Elevation 129 ft / 39 m (AMSL)
Location 11.890166° -15.648833°
Runways 1
Magnetic Variation 7.192° W

METAR

GGOV 201600Z 27010KT CAVOK 34/18 Q1009 NOSIG

Decode

TAF

TAF GGOV 201100Z 2012/2112 22007KT CAVOK= TAF GQPP 201100Z 2012/2112 36016KT 7000 NSC PROB40 TEMPO 2014/2020 3500 DRSA

Decode

Destination Runways

ID Width Length Bearing (true) Bearing (mag) Surface Threshold Offset Overrun Length
03 148 ft / 45 m 10,509 ft / 3,203 m 22.10° 29.29° Asphalt 0 ft / 0 m 1,312 ft / 400 m
21 148 ft / 45 m 10,509 ft / 3,203 m 202.10° 209.29° Asphalt 0 ft / 0 m 656 ft / 200 m

Popular Alternatives